createdAt,value
2023-01-01T00:00:07.922Z,15.73
2023-01-01T00:02:37.833Z,15.69
2023-01-01T00:05:06.283Z,15.75
2023-01-01T00:07:33.874Z,15.73
2023-01-01T00:10:18.988Z,15.75
2023-01-01T00:12:46.391Z,15.73
2023-01-01T00:15:15.297Z,15.68
2023-01-01T00:17:45.170Z,15.73
2023-01-01T00:20:13.465Z,15.74
2023-01-01T00:22:54.460Z,15.73
2023-01-01T00:25:22.830Z,15.75
2023-01-01T00:27:50.509Z,15.75
2023-01-01T00:30:19.533Z,15.75
2023-01-01T00:32:55.162Z,15.73
2023-01-01T00:35:24.091Z,15.74
2023-01-01T00:37:51.583Z,15.75
2023-01-01T00:40:19.096Z,15.73
2023-01-01T00:42:46.516Z,15.71
2023-01-01T00:45:20.604Z,15.71
2023-01-01T00:47:51.299Z,15.73
2023-01-01T00:50:18.899Z,15.74
2023-01-01T00:52:46.893Z,15.74
2023-01-01T00:55:14.392Z,15.76
2023-01-01T00:57:42.058Z,15.78
2023-01-01T01:00:11.129Z,15.75
2023-01-01T01:02:38.802Z,15.78
2023-01-01T01:05:09.062Z,15.78
2023-01-01T01:07:37.318Z,15.80
2023-01-01T01:10:05.464Z,15.84
2023-01-01T01:12:34.718Z,15.80
2023-01-01T01:15:02.455Z,15.82
2023-01-01T01:17:30.364Z,15.83
2023-01-01T01:19:57.838Z,15.83
2023-01-01T01:22:28.889Z,15.81
2023-01-01T01:24:56.816Z,15.85
2023-01-01T01:27:24.500Z,15.87
2023-01-01T01:29:52.135Z,15.89
2023-01-01T01:32:19.601Z,15.89
2023-01-01T01:34:47.443Z,15.88
2023-01-01T01:37:15.504Z,15.89
2023-01-01T01:39:45.944Z,15.90
2023-01-01T01:42:18.362Z,15.90
2023-01-01T01:44:57.905Z,15.88
2023-01-01T01:47:30.735Z,15.91
2023-01-01T01:50:03.679Z,15.92
2023-01-01T01:52:34.261Z,15.91
2023-01-01T01:55:05.205Z,15.92
2023-01-01T01:57:34.693Z,15.92
2023-01-01T02:00:10.632Z,15.92
2023-01-01T02:02:43.334Z,15.92
2023-01-01T02:05:10.973Z,15.92
2023-01-01T02:07:39.112Z,15.94
2023-01-01T02:10:07.585Z,15.88
2023-01-01T02:12:36.425Z,15.90
2023-01-01T02:15:04.466Z,15.89
2023-01-01T02:17:39.310Z,15.91
2023-01-01T02:20:30.231Z,15.90
2023-01-01T02:23:18.148Z,15.89
2023-01-01T02:26:02.263Z,15.90
2023-01-01T02:28:45.158Z,15.88
2023-01-01T02:31:22.998Z,15.88
2023-01-01T02:33:54.410Z,15.87
2023-01-01T02:36:24.463Z,15.86
2023-01-01T02:38:55.733Z,15.88
2023-01-01T02:41:28.375Z,15.87
2023-01-01T02:48:52.100Z,15.87
2023-01-01T02:51:30.161Z,15.84
2023-01-01T02:54:02.946Z,15.88
2023-01-01T02:56:38.575Z,15.83
2023-01-01T02:59:36.041Z,15.84
2023-01-01T03:02:13.695Z,15.82
2023-01-01T03:04:53.376Z,15.86
2023-01-01T03:07:27.939Z,15.83
2023-01-01T03:10:01.757Z,15.83
2023-01-01T03:12:40.411Z,15.83
2023-01-01T03:15:16.523Z,15.83
2023-01-01T03:17:50.732Z,15.86
2023-01-01T03:20:23.012Z,15.87
2023-01-01T03:22:54.230Z,15.83
2023-01-01T03:25:24.708Z,15.84
2023-01-01T03:27:57.363Z,15.84
2023-01-01T03:30:27.203Z,15.81
2023-01-01T03:33:04.263Z,15.81
2023-01-01T03:35:38.823Z,15.80
2023-01-01T03:38:11.905Z,15.78
2023-01-01T03:40:40.679Z,15.79
2023-01-01T03:43:15.051Z,15.76
2023-01-01T03:45:48.760Z,15.76
2023-01-01T03:48:16.298Z,15.73
2023-01-01T03:50:57.031Z,15.69
2023-01-01T03:53:34.374Z,15.68
2023-01-01T03:56:09.240Z,15.62
2023-01-01T03:58:44.377Z,15.61
2023-01-01T04:01:18.511Z,15.59
2023-01-01T04:03:47.751Z,15.56
2023-01-01T04:06:15.884Z,15.57
2023-01-01T04:08:43.524Z,15.48
2023-01-01T04:11:30.074Z,15.50
2023-01-01T04:13:57.575Z,15.51
2023-01-01T04:16:26.434Z,15.45
2023-01-01T04:18:53.912Z,15.40
2023-01-01T04:21:21.404Z,15.40
2023-01-01T04:23:48.907Z,15.41
2023-01-01T04:26:16.896Z,15.41
2023-01-01T04:28:44.504Z,15.43
2023-01-01T04:31:12.729Z,15.40
2023-01-01T04:33:41.509Z,15.36
2023-01-01T04:36:11.036Z,15.33
2023-01-01T04:38:39.268Z,15.28
2023-01-01T04:41:06.827Z,15.24
2023-01-01T04:43:34.316Z,15.17
2023-01-01T04:46:03.142Z,15.21
2023-01-01T04:48:33.649Z,15.22
2023-01-01T04:51:04.846Z,15.17
2023-01-01T04:53:34.185Z,15.17
2023-01-01T04:56:04.714Z,15.19
2023-01-01T04:58:32.535Z,15.13
2023-01-01T05:01:00.138Z,15.11
2023-01-01T05:03:27.875Z,15.10
2023-01-01T05:06:04.052Z,15.05
2023-01-01T05:08:32.027Z,15.07
2023-01-01T05:11:02.687Z,14.97
2023-01-01T05:13:30.530Z,14.98
2023-01-01T05:15:58.368Z,14.97
2023-01-01T05:18:25.917Z,14.88
2023-01-01T05:20:53.668Z,14.87
2023-01-01T05:23:23.048Z,14.85
2023-01-01T05:25:50.533Z,14.79
2023-01-01T05:28:18.022Z,14.75
2023-01-01T05:30:45.491Z,14.74
2023-01-01T05:33:13.386Z,14.72
2023-01-01T05:35:40.845Z,14.75
2023-01-01T05:38:08.294Z,14.74
2023-01-01T05:40:39.444Z,14.74
2023-01-01T05:43:07.388Z,14.75
2023-01-01T05:45:34.904Z,14.73
2023-01-01T05:48:04.157Z,14.77
2023-01-01T05:50:31.758Z,14.77
2023-01-01T05:52:59.255Z,14.79
2023-01-01T05:55:26.733Z,14.81
2023-01-01T05:57:55.585Z,14.78
2023-01-01T06:00:23.201Z,14.80
2023-01-01T06:02:51.536Z,14.80
2023-01-01T06:05:19.095Z,14.81
2023-01-01T06:07:48.827Z,14.80
2023-01-01T06:10:16.713Z,14.78
2023-01-01T06:12:44.177Z,14.79
2023-01-01T06:15:13.009Z,14.78
2023-01-01T06:17:40.474Z,14.77
2023-01-01T06:20:08.742Z,14.79
2023-01-01T06:22:37.103Z,14.78
2023-01-01T06:25:05.042Z,14.80
2023-01-01T06:27:32.682Z,14.82
2023-01-01T06:30:00.225Z,14.82
2023-01-01T06:32:29.365Z,14.81
2023-01-01T06:34:56.853Z,14.84
2023-01-01T06:37:24.488Z,14.84
2023-01-01T06:39:52.005Z,14.82
2023-01-01T06:42:19.837Z,14.84
2023-01-01T06:44:47.355Z,14.84
2023-01-01T06:47:14.815Z,14.85
2023-01-01T06:49:43.669Z,14.85
2023-01-01T06:52:11.169Z,14.86
2023-01-01T06:54:38.671Z,14.79
2023-01-01T06:57:06.290Z,14.85
2023-01-01T06:59:34.057Z,14.85
2023-01-01T07:02:07.318Z,14.87
2023-01-01T07:04:51.207Z,14.85
2023-01-01T07:07:35.882Z,14.84
2023-01-01T07:10:12.044Z,14.80
2023-01-01T07:19:03.714Z,14.83
2023-01-01T07:21:50.435Z,14.73
2023-01-01T07:24:29.597Z,14.78
2023-01-01T07:27:07.650Z,14.75
2023-01-01T07:29:45.643Z,14.74
2023-01-01T07:32:25.968Z,14.68
2023-01-01T07:34:59.116Z,14.74
2023-01-01T07:37:49.038Z,14.70
2023-01-01T07:40:31.101Z,14.75
2023-01-01T07:43:18.417Z,14.81
2023-01-01T07:49:48.595Z,14.78
2023-01-01T07:58:49.396Z,14.78
2023-01-01T08:04:18.117Z,14.79
2023-01-01T09:03:35.445Z,15.03
2023-01-01T09:06:17.182Z,15.04
2023-01-01T09:09:32.750Z,14.98
2023-01-01T09:13:07.441Z,15.06
2023-01-01T09:20:44.767Z,15.13
2023-01-01T09:29:51.854Z,15.16
2023-01-01T09:32:40.517Z,15.19
2023-01-01T09:35:11.055Z,15.21
2023-01-01T09:54:13.128Z,15.38
2023-01-01T09:56:46.814Z,15.45
2023-01-01T10:02:37.993Z,15.56
2023-01-01T10:05:29.394Z,15.61
2023-01-01T10:08:42.427Z,15.64
2023-01-01T10:11:19.578Z,15.73
2023-01-01T10:13:48.867Z,15.77
2023-01-01T10:16:25.333Z,15.81
2023-01-01T10:18:55.973Z,15.87
2023-01-01T10:21:28.398Z,15.90
2023-01-01T10:24:00.789Z,15.90
2023-01-01T10:26:32.871Z,15.94
2023-01-01T10:29:05.259Z,15.93
2023-01-01T10:31:35.252Z,15.95
2023-01-01T10:34:12.856Z,15.90
2023-01-01T10:36:40.557Z,15.96
2023-01-01T10:39:08.562Z,16.00
2023-01-01T10:41:37.524Z,15.99
2023-01-01T10:44:06.973Z,16.04
2023-01-01T10:46:59.078Z,16.00
2023-01-01T10:49:27.447Z,16.03
2023-01-01T10:51:55.861Z,16.00
2023-01-01T10:54:35.499Z,16.02
2023-01-01T10:57:17.507Z,16.07
2023-01-01T11:00:07.276Z,16.08
2023-01-01T11:02:37.835Z,16.04
2023-01-01T11:05:21.666Z,16.07
2023-01-01T11:07:50.573Z,16.08
2023-01-01T11:10:21.011Z,16.14
2023-01-01T11:13:06.648Z,16.14
2023-01-01T11:15:38.603Z,16.17
2023-01-01T11:18:11.773Z,16.16
2023-01-01T11:20:39.550Z,16.20
2023-01-01T11:23:29.403Z,16.20
2023-01-01T11:26:02.664Z,16.25
2023-01-01T11:28:34.457Z,16.27
2023-01-01T11:31:11.176Z,16.20
2023-01-01T11:33:44.595Z,16.20
2023-01-01T11:36:12.975Z,16.18
2023-01-01T11:38:40.717Z,16.19
2023-01-01T11:41:09.633Z,16.19
2023-01-01T11:43:56.869Z,16.17
2023-01-01T11:46:25.667Z,16.19
2023-01-01T11:48:55.457Z,16.20
2023-01-01T11:51:32.319Z,16.18
2023-01-01T11:54:32.742Z,16.19
2023-01-01T11:57:08.717Z,16.23
2023-01-01T11:59:44.683Z,16.23
2023-01-01T12:02:16.360Z,16.25
2023-01-01T12:04:50.228Z,16.28
2023-01-01T12:07:24.027Z,16.31
2023-01-01T12:09:59.221Z,16.37
2023-01-01T12:12:32.567Z,16.42
2023-01-01T12:15:05.349Z,16.45
2023-01-01T12:17:35.675Z,16.48
2023-01-01T12:20:09.775Z,16.50
2023-01-01T12:22:37.467Z,16.46
2023-01-01T12:25:06.447Z,16.43
2023-01-01T12:27:48.089Z,16.46
2023-01-01T12:30:26.005Z,16.50
2023-01-01T12:33:23.114Z,16.51
2023-01-01T12:36:03.457Z,16.54
2023-01-01T12:38:48.786Z,16.53
2023-01-01T12:41:27.058Z,16.48
2023-01-01T12:44:05.720Z,16.48
2023-01-01T12:46:47.906Z,16.48
2023-01-01T12:49:36.944Z,16.49
2023-01-01T12:52:22.394Z,16.48
2023-01-01T12:55:10.362Z,16.41
2023-01-01T12:57:47.501Z,16.41
2023-01-01T13:00:19.842Z,16.42
2023-01-01T13:02:53.860Z,16.45
2023-01-01T13:05:25.062Z,16.38
2023-01-01T13:07:59.530Z,16.36
2023-01-01T13:10:30.824Z,16.34
2023-01-01T13:12:58.740Z,16.31
2023-01-01T13:15:48.561Z,16.34
2023-01-01T13:18:26.767Z,16.36
2023-01-01T13:21:08.508Z,16.35
2023-01-01T13:23:51.171Z,16.35
2023-01-01T13:26:37.808Z,16.33
2023-01-01T13:29:34.899Z,16.28
2023-01-01T13:32:10.824Z,16.29
2023-01-01T13:38:05.062Z,16.26
2023-01-01T13:40:50.999Z,16.21
2023-01-01T13:43:35.603Z,16.19
2023-01-01T13:46:14.846Z,16.19
2023-01-01T13:49:23.716Z,16.15
2023-01-01T13:52:12.757Z,16.11
2023-01-01T13:55:17.712Z,16.07
2023-01-01T13:58:15.871Z,16.01
2023-01-01T14:00:56.729Z,16.02
2023-01-01T14:03:32.466Z,16.00
2023-01-01T14:06:07.919Z,15.94
2023-01-01T14:08:38.439Z,15.94
2023-01-01T14:11:20.753Z,15.93
2023-01-01T14:16:35.760Z,15.95
2023-01-01T14:19:12.712Z,15.92
2023-01-01T14:21:42.317Z,15.92
2023-01-01T14:24:16.483Z,15.84
2023-01-01T14:26:44.992Z,15.82
2023-01-01T14:29:21.188Z,15.81
2023-01-01T14:31:49.834Z,15.83
2023-01-01T14:34:26.648Z,15.82
2023-01-01T14:36:57.156Z,15.79
2023-01-01T14:39:32.698Z,15.79
2023-01-01T14:42:03.610Z,15.78
2023-01-01T14:44:37.114Z,15.73
2023-01-01T14:47:09.810Z,15.70
2023-01-01T14:49:40.513Z,15.69
2023-01-01T14:52:19.662Z,15.66
2023-01-01T14:54:49.334Z,15.64
2023-01-01T14:57:22.225Z,15.63
2023-01-01T15:00:05.666Z,15.62
2023-01-01T15:02:38.864Z,15.63
2023-01-01T15:05:34.611Z,15.62
2023-01-01T15:08:05.944Z,15.62
2023-01-01T15:10:55.504Z,15.58
2023-01-01T15:13:24.813Z,15.56
2023-01-01T15:15:55.553Z,15.55
2023-01-01T15:18:51.565Z,15.52
2023-01-01T15:21:35.425Z,15.50
2023-01-01T15:24:07.041Z,15.50
2023-01-01T15:26:48.533Z,15.49
2023-01-01T15:29:24.403Z,15.51
2023-01-01T15:31:57.010Z,15.50
2023-01-01T15:34:29.103Z,15.50
2023-01-01T15:37:08.155Z,15.50
2023-01-01T15:39:55.618Z,15.50
2023-01-01T15:42:48.567Z,15.47
2023-01-01T15:45:21.902Z,15.42
2023-01-01T15:47:50.860Z,15.39
2023-01-01T15:50:27.241Z,15.37
2023-01-01T15:53:06.989Z,15.35
2023-01-01T15:55:37.811Z,15.35
2023-01-01T15:58:07.700Z,15.37
2023-01-01T16:00:50.887Z,15.35
2023-01-01T16:03:25.083Z,15.31
2023-01-01T16:05:55.435Z,15.30
2023-01-01T16:08:23.969Z,15.29
2023-01-01T16:10:54.260Z,15.31
2023-01-01T16:13:27.907Z,15.30
2023-01-01T16:16:02.521Z,15.27
2023-01-01T16:18:31.952Z,15.27
2023-01-01T16:20:59.959Z,15.26
2023-01-01T16:23:27.940Z,15.28
2023-01-01T16:25:55.461Z,15.25
2023-01-01T16:28:24.487Z,15.24
2023-01-01T16:30:52.156Z,15.21
2023-01-01T16:33:22.620Z,15.19
2023-01-01T16:35:50.467Z,15.15
2023-01-01T16:38:19.349Z,15.15
2023-01-01T16:40:46.890Z,15.12
2023-01-01T16:43:17.383Z,15.09
2023-01-01T16:45:46.704Z,15.06
2023-01-01T16:48:14.277Z,15.01
2023-01-01T16:50:41.828Z,14.96
2023-01-01T16:53:09.439Z,14.94
2023-01-01T16:55:36.961Z,14.95
2023-01-01T16:58:46.897Z,14.95
2023-01-01T17:00:59.983Z,14.93
2023-01-01T17:03:28.119Z,14.93
2023-01-01T17:05:55.742Z,14.92
2023-01-01T17:08:23.297Z,14.90
2023-01-01T17:10:56.202Z,14.85
2023-01-01T17:13:26.524Z,14.79
2023-01-01T17:15:57.653Z,14.68
2023-01-01T17:18:55.269Z,14.61
2023-01-01T17:21:12.819Z,14.59
2023-01-01T17:23:42.298Z,14.57
2023-01-01T17:26:11.871Z,14.56
2023-01-01T17:28:40.215Z,14.56
2023-01-01T17:31:11.803Z,14.56
2023-01-01T17:33:40.911Z,14.57
2023-01-01T17:36:10.632Z,14.60
2023-01-01T17:38:38.431Z,14.60
2023-01-01T17:41:08.630Z,14.59
2023-01-01T17:43:38.609Z,14.59
2023-01-01T17:46:08.258Z,14.57
2023-01-01T17:48:37.474Z,14.54
2023-01-01T17:51:05.555Z,14.53
2023-01-01T17:53:33.126Z,14.51
2023-01-01T17:56:01.010Z,14.50
2023-01-01T17:58:32.154Z,14.47
2023-01-01T18:01:17.082Z,14.41
2023-01-01T18:03:46.104Z,14.35
2023-01-01T18:06:13.682Z,14.33
2023-01-01T18:08:41.773Z,14.31
2023-01-01T18:11:09.436Z,14.30
2023-01-01T18:13:38.341Z,14.26
2023-01-01T18:16:08.717Z,14.25
2023-01-01T18:18:38.352Z,14.23
2023-01-01T18:21:11.018Z,14.18
2023-01-01T18:23:40.222Z,14.15
2023-01-01T18:26:09.858Z,14.13
2023-01-01T18:28:38.206Z,14.11
2023-01-01T18:31:06.241Z,14.00
2023-01-01T18:33:35.725Z,13.95
2023-01-01T18:36:05.538Z,13.92
2023-01-01T18:38:35.778Z,13.92
2023-01-01T18:41:20.575Z,13.86
2023-01-01T18:43:49.233Z,13.83
2023-01-01T18:46:16.871Z,13.79
2023-01-01T18:48:44.505Z,13.77
2023-01-01T18:51:15.766Z,13.73
2023-01-01T18:53:44.669Z,13.73
2023-01-01T18:56:14.698Z,13.69
2023-01-01T18:58:43.128Z,13.68
2023-01-01T19:01:16.020Z,13.66
2023-01-01T19:03:43.931Z,13.67
2023-01-01T19:06:24.324Z,13.64
2023-01-01T19:09:00.453Z,13.61
2023-01-01T19:11:27.958Z,13.61
2023-01-01T19:14:03.549Z,13.53
2023-01-01T19:16:33.166Z,13.50
2023-01-01T19:19:11.681Z,13.50
2023-01-01T19:21:44.090Z,13.51
2023-01-01T19:24:20.351Z,13.46
2023-01-01T19:26:48.606Z,13.47
2023-01-01T19:29:18.432Z,13.45
2023-01-01T19:31:47.664Z,13.43
2023-01-01T19:34:15.320Z,13.41
2023-01-01T19:36:43.382Z,13.38
2023-01-01T19:39:11.319Z,13.33
2023-01-01T19:41:40.346Z,13.19
2023-01-01T19:44:10.477Z,13.26
2023-01-01T19:46:39.811Z,13.23
2023-01-01T19:49:07.382Z,13.23
2023-01-01T19:51:36.013Z,13.20
2023-01-01T19:54:03.577Z,13.21
2023-01-01T19:56:31.115Z,13.19
2023-01-01T19:58:59.984Z,13.20
2023-01-01T20:01:27.675Z,13.23
2023-01-01T20:03:57.869Z,13.26
2023-01-01T20:06:26.366Z,13.28
2023-01-01T20:08:54.530Z,13.27
2023-01-01T20:11:22.299Z,13.25
2023-01-01T20:13:49.913Z,13.24
2023-01-01T20:16:18.894Z,13.23
2023-01-01T20:18:48.066Z,13.17
2023-01-01T20:21:33.433Z,13.16
2023-01-01T20:24:01.071Z,13.17
2023-01-01T20:26:28.662Z,13.15
2023-01-01T20:29:13.834Z,13.13
2023-01-01T20:31:42.890Z,13.13
2023-01-01T20:34:10.777Z,13.13
2023-01-01T20:36:56.286Z,13.09
2023-01-01T20:39:24.033Z,13.11
2023-01-01T20:41:51.682Z,13.13
2023-01-01T20:44:19.649Z,13.13
2023-01-01T20:46:49.649Z,13.13
2023-01-01T20:49:19.283Z,13.14
2023-01-01T20:51:47.962Z,13.07
2023-01-01T20:54:15.650Z,13.06
2023-01-01T20:56:43.180Z,13.03
2023-01-01T20:59:33.591Z,13.07
2023-01-01T21:02:01.375Z,13.07
2023-01-01T21:04:29.125Z,13.06
2023-01-01T21:06:56.697Z,13.04
2023-01-01T21:09:24.338Z,13.06
2023-01-01T21:11:51.900Z,13.06
2023-01-01T21:14:22.315Z,13.09
2023-01-01T21:16:52.994Z,13.11
2023-01-01T21:19:26.678Z,13.11
2023-01-01T21:21:57.002Z,13.08
2023-01-01T21:24:27.931Z,13.09
2023-01-01T21:27:01.273Z,13.06
2023-01-01T21:29:33.184Z,13.11
2023-01-01T21:32:13.575Z,13.12
2023-01-01T21:34:43.915Z,13.15
2023-01-01T21:37:37.162Z,13.16
2023-01-01T21:40:47.801Z,13.15
2023-01-01T21:43:39.413Z,13.18
2023-01-01T21:46:18.693Z,13.18
2023-01-01T21:48:56.040Z,13.17
2023-01-01T21:51:26.792Z,13.13
2023-01-01T21:54:01.992Z,13.10
2023-01-01T21:56:31.830Z,13.10
2023-01-01T21:59:28.448Z,13.07
2023-01-01T22:02:09.177Z,13.06
2023-01-01T22:04:40.318Z,13.03
2023-01-01T22:10:15.542Z,13.09
2023-01-01T22:12:43.540Z,13.10
2023-01-01T22:15:28.895Z,13.09
2023-01-01T22:18:13.963Z,13.09
2023-01-01T22:20:43.495Z,13.12
2023-01-01T22:23:23.609Z,13.13
2023-01-01T22:25:52.388Z,13.14
2023-01-01T22:28:23.184Z,13.15
2023-01-01T22:30:53.916Z,13.15
2023-01-01T22:33:26.916Z,13.15
2023-01-01T22:35:56.109Z,13.17
2023-01-01T22:38:33.248Z,13.17
2023-01-01T22:41:00.882Z,13.18
2023-01-01T22:43:32.981Z,13.18
2023-01-01T22:46:05.774Z,13.20
2023-01-01T22:48:36.113Z,13.19
2023-01-01T22:51:08.519Z,13.18
2023-01-01T22:53:37.327Z,13.18
2023-01-01T22:56:05.127Z,13.17
2023-01-01T22:58:32.636Z,13.16
2023-01-01T23:01:00.174Z,13.18
2023-01-01T23:03:27.885Z,13.17
2023-01-01T23:05:55.842Z,13.16
2023-01-01T23:08:24.866Z,13.15
2023-01-01T23:10:54.950Z,13.16
2023-01-01T23:13:40.407Z,13.20
2023-01-01T23:16:08.449Z,13.20
2023-01-01T23:18:37.807Z,13.21
2023-01-01T23:21:09.473Z,13.23
2023-01-01T23:23:38.667Z,13.20
2023-01-01T23:26:09.398Z,13.18
2023-01-01T23:28:37.986Z,13.17
2023-01-01T23:31:08.863Z,13.16
2023-01-01T23:33:36.795Z,13.17
2023-01-01T23:36:05.323Z,13.17
2023-01-01T23:38:33.295Z,13.20
2023-01-01T23:41:01.444Z,13.24
2023-01-01T23:43:30.361Z,13.24
2023-01-01T23:45:58.158Z,13.26
2023-01-01T23:48:26.021Z,13.30
2023-01-01T23:50:53.555Z,13.30
2023-01-01T23:53:21.036Z,13.34
2023-01-01T23:55:48.776Z,13.34
2023-01-01T23:58:17.034Z,13.33
